Llanrwst, United Kingdom
Current Conditions -  °F | °C
As of 9:50 AM on Friday 31 Oct 2014 (Local Time) from EGOV Reporting Station
Overcast Overcast  
Wind Chill: 17°   Ceiling: 2400
Heat Index: 17°   Visibility: 6mi
Dew Point: 14°   Wind: 24mph
Humidity: 82%   Direction: 170°S
Pressure: 29.8"   Gusts: NA
Location:  53.14°N, 3.8°W
Report Text: EGOV 310950Z 17021KT 9999 OVC024 17/14 Q1009 WHT BECMG 7000 HZ SCT014 GRN
Loading
Personal Weather Stations






























Interactive Weather Map
Tropical Storm Tracking
New forecast layout! Learn more

10-Day Weather Forecast

Advertisements
Track Severe Weather on mobile